sensor_id;sensor_type;location;lat;lon;timestamp;temperature;humidity
2913;DHT22;1466;48.778;9.166;2024-01-30T00:01:35;7.90;95.40
2913;DHT22;1466;48.778;9.166;2024-01-30T00:04:02;7.80;95.40
2913;DHT22;1466;48.778;9.166;2024-01-30T00:06:27;7.80;95.60
2913;DHT22;1466;48.778;9.166;2024-01-30T00:08:53;7.80;95.60
2913;DHT22;1466;48.778;9.166;2024-01-30T00:11:19;7.80;95.40
2913;DHT22;1466;48.778;9.166;2024-01-30T00:13:44;7.80;95.60
2913;DHT22;1466;48.778;9.166;2024-01-30T00:16:20;7.80;95.50
2913;DHT22;1466;48.778;9.166;2024-01-30T00:18:47;7.80;95.50
2913;DHT22;1466;48.778;9.166;2024-01-30T00:21:13;7.80;95.50
2913;DHT22;1466;48.778;9.166;2024-01-30T00:23:38;7.70;95.40
2913;DHT22;1466;48.778;9.166;2024-01-30T00:26:04;7.70;95.50
2913;DHT22;1466;48.778;9.166;2024-01-30T00:28:30;7.80;95.70
2913;DHT22;1466;48.778;9.166;2024-01-30T00:30:56;7.80;95.60
2913;DHT22;1466;48.778;9.166;2024-01-30T00:33:22;7.80;95.50
2913;DHT22;1466;48.778;9.166;2024-01-30T00:35:47;7.80;95.70
2913;DHT22;1466;48.778;9.166;2024-01-30T00:38:13;7.70;95.70
2913;DHT22;1466;48.778;9.166;2024-01-30T00:40:38;7.70;95.70
2913;DHT22;1466;48.778;9.166;2024-01-30T00:43:04;7.70;95.80
2913;DHT22;1466;48.778;9.166;2024-01-30T00:45:29;7.70;96.10
2913;DHT22;1466;48.778;9.166;2024-01-30T00:47:55;7.70;96.00
2913;DHT22;1466;48.778;9.166;2024-01-30T00:50:20;7.80;95.90
2913;DHT22;1466;48.778;9.166;2024-01-30T00:52:46;7.80;95.90
2913;DHT22;1466;48.778;9.166;2024-01-30T00:55:12;7.80;95.80
2913;DHT22;1466;48.778;9.166;2024-01-30T00:57:38;7.80;95.90
2913;DHT22;1466;48.778;9.166;2024-01-30T01:00:04;7.70;95.80
2913;DHT22;1466;48.778;9.166;2024-01-30T01:02:31;7.60;95.90
2913;DHT22;1466;48.778;9.166;2024-01-30T01:04:57;7.60;95.90
2913;DHT22;1466;48.778;9.166;2024-01-30T01:07:23;7.50;96.10
2913;DHT22;1466;48.778;9.166;2024-01-30T01:09:48;7.50;96.10
2913;DHT22;1466;48.778;9.166;2024-01-30T01:12:14;7.50;96.60
2913;DHT22;1466;48.778;9.166;2024-01-30T01:14:39;7.50;96.20
2913;DHT22;1466;48.778;9.166;2024-01-30T01:17:05;7.50;96.10
2913;DHT22;1466;48.778;9.166;2024-01-30T01:19:30;7.60;96.10
2913;DHT22;1466;48.778;9.166;2024-01-30T01:21:56;7.60;96.20
2913;DHT22;1466;48.778;9.166;2024-01-30T01:24:22;7.50;96.00
2913;DHT22;1466;48.778;9.166;2024-01-30T01:26:47;7.40;96.40
2913;DHT22;1466;48.778;9.166;2024-01-30T01:29:13;7.40;96.20
2913;DHT22;1466;48.778;9.166;2024-01-30T01:31:39;7.40;96.40
2913;DHT22;1466;48.778;9.166;2024-01-30T01:34:09;7.40;96.40
2913;DHT22;1466;48.778;9.166;2024-01-30T01:36:35;7.40;96.30
2913;DHT22;1466;48.778;9.166;2024-01-30T01:39:01;7.40;96.60
2913;DHT22;1466;48.778;9.166;2024-01-30T01:41:30;7.50;96.70
2913;DHT22;1466;48.778;9.166;2024-01-30T01:43:56;7.50;96.40
2913;DHT22;1466;48.778;9.166;2024-01-30T01:46:22;7.50;96.40
2913;DHT22;1466;48.778;9.166;2024-01-30T01:48:48;7.50;96.50
2913;DHT22;1466;48.778;9.166;2024-01-30T01:51:14;7.50;96.50
2913;DHT22;1466;48.778;9.166;2024-01-30T01:53:40;7.50;96.70
2913;DHT22;1466;48.778;9.166;2024-01-30T01:56:06;7.50;96.70
2913;DHT22;1466;48.778;9.166;2024-01-30T01:58:31;7.40;96.50
2913;DHT22;1466;48.778;9.166;2024-01-30T02:00:58;7.40;96.60
2913;DHT22;1466;48.778;9.166;2024-01-30T02:03:24;7.40;96.70
2913;DHT22;1466;48.778;9.166;2024-01-30T02:05:53;7.30;97.00
2913;DHT22;1466;48.778;9.166;2024-01-30T02:08:20;7.40;96.90
2913;DHT22;1466;48.778;9.166;2024-01-30T02:10:46;7.40;97.10
2913;DHT22;1466;48.778;9.166;2024-01-30T02:13:11;7.40;97.00
2913;DHT22;1466;48.778;9.166;2024-01-30T02:15:37;7.30;96.90
2913;DHT22;1466;48.778;9.166;2024-01-30T02:18:02;7.30;96.90
2913;DHT22;1466;48.778;9.166;2024-01-30T02:20:30;7.30;97.00
2913;DHT22;1466;48.778;9.166;2024-01-30T02:22:58;7.30;97.00
2913;DHT22;1466;48.778;9.166;2024-01-30T02:25:42;7.30;97.00
2913;DHT22;1466;48.778;9.166;2024-01-30T02:28:13;7.20;97.50
2913;DHT22;1466;48.778;9.166;2024-01-30T02:30:39;7.20;97.50
2913;DHT22;1466;48.778;9.166;2024-01-30T02:33:05;7.20;97.50
2913;DHT22;1466;48.778;9.166;2024-01-30T02:35:31;7.10;97.50
2913;DHT22;1466;48.778;9.166;2024-01-30T02:37:57;7.10;97.40
2913;DHT22;1466;48.778;9.166;2024-01-30T02:40:22;7.20;97.50
2913;DHT22;1466;48.778;9.166;2024-01-30T02:42:48;7.20;97.60
2913;DHT22;1466;48.778;9.166;2024-01-30T02:45:14;7.20;97.70
2913;DHT22;1466;48.778;9.166;2024-01-30T02:47:40;7.20;97.70
2913;DHT22;1466;48.778;9.166;2024-01-30T02:50:06;7.20;97.60
2913;DHT22;1466;48.778;9.166;2024-01-30T02:52:32;7.20;97.60
2913;DHT22;1466;48.778;9.166;2024-01-30T02:54:57;7.20;97.50
2913;DHT22;1466;48.778;9.166;2024-01-30T02:57:23;7.30;97.70
2913;DHT22;1466;48.778;9.166;2024-01-30T02:59:49;7.20;97.50
2913;DHT22;1466;48.778;9.166;2024-01-30T03:02:14;7.20;97.60
2913;DHT22;1466;48.778;9.166;2024-01-30T03:04:43;7.20;97.50
2913;DHT22;1466;48.778;9.166;2024-01-30T03:07:09;7.20;97.50
2913;DHT22;1466;48.778;9.166;2024-01-30T03:09:36;7.20;97.70
2913;DHT22;1466;48.778;9.166;2024-01-30T03:12:03;7.20;97.90
2913;DHT22;1466;48.778;9.166;2024-01-30T03:14:30;7.10;97.70
2913;DHT22;1466;48.778;9.166;2024-01-30T03:16:56;7.10;97.80
2913;DHT22;1466;48.778;9.166;2024-01-30T03:19:22;7.10;97.70
2913;DHT22;1466;48.778;9.166;2024-01-30T03:21:47;7.00;97.80
2913;DHT22;1466;48.778;9.166;2024-01-30T03:24:13;7.00;97.90
2913;DHT22;1466;48.778;9.166;2024-01-30T03:26:38;7.00;97.70
2913;DHT22;1466;48.778;9.166;2024-01-30T03:29:04;7.00;97.70
2913;DHT22;1466;48.778;9.166;2024-01-30T03:31:30;7.00;97.80
2913;DHT22;1466;48.778;9.166;2024-01-30T03:33:55;6.90;97.80
2913;DHT22;1466;48.778;9.166;2024-01-30T03:36:21;6.90;98.00
2913;DHT22;1466;48.778;9.166;2024-01-30T03:38:46;6.90;98.30
2913;DHT22;1466;48.778;9.166;2024-01-30T03:41:12;7.00;98.00
2913;DHT22;1466;48.778;9.166;2024-01-30T03:43:38;7.00;97.90
2913;DHT22;1466;48.778;9.166;2024-01-30T03:46:03;7.00;97.70
2913;DHT22;1466;48.778;9.166;2024-01-30T03:48:29;7.00;97.80
2913;DHT22;1466;48.778;9.166;2024-01-30T03:50:55;7.00;97.90
2913;DHT22;1466;48.778;9.166;2024-01-30T03:53:21;6.90;97.80
2913;DHT22;1466;48.778;9.166;2024-01-30T03:55:47;6.90;97.70
2913;DHT22;1466;48.778;9.166;2024-01-30T03:58:12;6.90;97.90
2913;DHT22;1466;48.778;9.166;2024-01-30T04:00:38;6.90;97.90
2913;DHT22;1466;48.778;9.166;2024-01-30T04:03:04;6.90;97.90
2913;DHT22;1466;48.778;9.166;2024-01-30T04:05:29;6.90;97.80
2913;DHT22;1466;48.778;9.166;2024-01-30T04:07:55;6.90;98.10
2913;DHT22;1466;48.778;9.166;2024-01-30T04:10:20;6.90;97.80
2913;DHT22;1466;48.778;9.166;2024-01-30T04:12:46;6.90;98.00
2913;DHT22;1466;48.778;9.166;2024-01-30T04:15:12;6.90;97.80
2913;DHT22;1466;48.778;9.166;2024-01-30T04:17:39;6.80;97.70
2913;DHT22;1466;48.778;9.166;2024-01-30T04:20:05;6.80;98.00
2913;DHT22;1466;48.778;9.166;2024-01-30T04:22:31;6.90;98.00
2913;DHT22;1466;48.778;9.166;2024-01-30T04:24:56;6.90;97.70
2913;DHT22;1466;48.778;9.166;2024-01-30T04:27:22;6.90;97.70
2913;DHT22;1466;48.778;9.166;2024-01-30T04:29:47;6.80;97.70
2913;DHT22;1466;48.778;9.166;2024-01-30T04:32:13;6.80;97.70
2913;DHT22;1466;48.778;9.166;2024-01-30T04:34:39;6.70;98.10
2913;DHT22;1466;48.778;9.166;2024-01-30T04:37:04;6.70;98.00
2913;DHT22;1466;48.778;9.166;2024-01-30T04:39:30;6.80;97.90
2913;DHT22;1466;48.778;9.166;2024-01-30T04:41:55;6.80;98.00
2913;DHT22;1466;48.778;9.166;2024-01-30T04:44:21;6.80;97.80
2913;DHT22;1466;48.778;9.166;2024-01-30T04:46:47;6.80;97.80
2913;DHT22;1466;48.778;9.166;2024-01-30T04:49:12;6.70;97.70
2913;DHT22;1466;48.778;9.166;2024-01-30T04:51:38;6.70;97.70
2913;DHT22;1466;48.778;9.166;2024-01-30T04:54:03;6.60;97.90
2913;DHT22;1466;48.778;9.166;2024-01-30T04:56:29;6.60;98.10
2913;DHT22;1466;48.778;9.166;2024-01-30T04:58:55;6.60;98.20
2913;DHT22;1466;48.778;9.166;2024-01-30T05:01:20;6.70;98.20
2913;DHT22;1466;48.778;9.166;2024-01-30T05:03:46;6.70;98.00
2913;DHT22;1466;48.778;9.166;2024-01-30T05:06:11;6.70;98.30
2913;DHT22;1466;48.778;9.166;2024-01-30T05:08:37;6.60;98.10
2913;DHT22;1466;48.778;9.166;2024-01-30T05:11:04;6.60;98.10
2913;DHT22;1466;48.778;9.166;2024-01-30T05:13:31;6.60;98.20
2913;DHT22;1466;48.778;9.166;2024-01-30T05:15:57;6.60;98.00
2913;DHT22;1466;48.778;9.166;2024-01-30T05:18:22;6.60;98.00
2913;DHT22;1466;48.778;9.166;2024-01-30T05:20:50;6.60;98.00
2913;DHT22;1466;48.778;9.166;2024-01-30T05:23:15;6.60;98.10
2913;DHT22;1466;48.778;9.166;2024-01-30T05:25:41;6.50;98.00
2913;DHT22;1466;48.778;9.166;2024-01-30T05:28:07;6.50;98.00
2913;DHT22;1466;48.778;9.166;2024-01-30T05:30:32;6.50;98.20
2913;DHT22;1466;48.778;9.166;2024-01-30T05:32:58;6.50;98.20
2913;DHT22;1466;48.778;9.166;2024-01-30T05:35:23;6.50;98.40
2913;DHT22;1466;48.778;9.166;2024-01-30T05:37:49;6.50;98.30
2913;DHT22;1466;48.778;9.166;2024-01-30T05:40:15;6.50;98.20
2913;DHT22;1466;48.778;9.166;2024-01-30T05:42:41;6.50;98.30
2913;DHT22;1466;48.778;9.166;2024-01-30T05:45:07;6.50;98.30
2913;DHT22;1466;48.778;9.166;2024-01-30T05:47:34;6.50;98.50
2913;DHT22;1466;48.778;9.166;2024-01-30T05:49:59;6.50;98.40
2913;DHT22;1466;48.778;9.166;2024-01-30T05:52:25;6.50;98.30
2913;DHT22;1466;48.778;9.166;2024-01-30T05:54:51;6.60;98.50
2913;DHT22;1466;48.778;9.166;2024-01-30T05:57:16;6.70;98.40
2913;DHT22;1466;48.778;9.166;2024-01-30T05:59:44;6.70;98.20
2913;DHT22;1466;48.778;9.166;2024-01-30T06:02:13;6.60;98.20
2913;DHT22;1466;48.778;9.166;2024-01-30T06:04:39;6.60;98.40
2913;DHT22;1466;48.778;9.166;2024-01-30T06:07:04;6.60;98.40
2913;DHT22;1466;48.778;9.166;2024-01-30T06:09:31;6.60;98.50
2913;DHT22;1466;48.778;9.166;2024-01-30T06:11:57;6.60;98.30
2913;DHT22;1466;48.778;9.166;2024-01-30T06:14:23;6.60;98.30
2913;DHT22;1466;48.778;9.166;2024-01-30T06:16:49;6.60;98.50
2913;DHT22;1466;48.778;9.166;2024-01-30T06:19:15;6.60;98.40
2913;DHT22;1466;48.778;9.166;2024-01-30T06:21:40;6.50;98.70
2913;DHT22;1466;48.778;9.166;2024-01-30T06:24:06;6.50;98.50
2913;DHT22;1466;48.778;9.166;2024-01-30T06:26:31;6.50;98.60
2913;DHT22;1466;48.778;9.166;2024-01-30T06:28:57;6.50;98.70
2913;DHT22;1466;48.778;9.166;2024-01-30T06:31:23;6.50;98.70
2913;DHT22;1466;48.778;9.166;2024-01-30T06:33:49;6.50;98.60
2913;DHT22;1466;48.778;9.166;2024-01-30T06:36:17;6.50;98.60
2913;DHT22;1466;48.778;9.166;2024-01-30T06:38:42;6.60;98.60
2913;DHT22;1466;48.778;9.166;2024-01-30T06:41:08;6.50;98.30
2913;DHT22;1466;48.778;9.166;2024-01-30T06:43:34;6.40;98.40
2913;DHT22;1466;48.778;9.166;2024-01-30T06:46:00;6.40;98.40
2913;DHT22;1466;48.778;9.166;2024-01-30T06:48:25;6.40;98.70
2913;DHT22;1466;48.778;9.166;2024-01-30T06:50:54;6.50;98.70
2913;DHT22;1466;48.778;9.166;2024-01-30T06:53:20;6.50;98.60
2913;DHT22;1466;48.778;9.166;2024-01-30T06:55:45;6.60;98.60
2913;DHT22;1466;48.778;9.166;2024-01-30T06:58:11;6.60;98.40
2913;DHT22;1466;48.778;9.166;2024-01-30T07:00:37;6.60;98.70
2913;DHT22;1466;48.778;9.166;2024-01-30T07:03:03;6.60;98.40
2913;DHT22;1466;48.778;9.166;2024-01-30T07:05:28;6.60;98.50
2913;DHT22;1466;48.778;9.166;2024-01-30T07:07:54;6.60;98.50
2913;DHT22;1466;48.778;9.166;2024-01-30T07:10:19;6.60;98.40
2913;DHT22;1466;48.778;9.166;2024-01-30T07:12:45;6.70;98.50
2913;DHT22;1466;48.778;9.166;2024-01-30T07:15:11;6.70;98.30
2913;DHT22;1466;48.778;9.166;2024-01-30T07:17:37;6.70;98.20
2913;DHT22;1466;48.778;9.166;2024-01-30T07:20:03;6.70;98.40
2913;DHT22;1466;48.778;9.166;2024-01-30T07:22:29;6.60;98.30
2913;DHT22;1466;48.778;9.166;2024-01-30T07:24:55;6.60;98.30
2913;DHT22;1466;48.778;9.166;2024-01-30T07:27:21;6.60;98.50
2913;DHT22;1466;48.778;9.166;2024-01-30T07:29:47;6.60;98.30
2913;DHT22;1466;48.778;9.166;2024-01-30T07:32:12;6.70;98.60
2913;DHT22;1466;48.778;9.166;2024-01-30T07:34:38;6.70;98.40
2913;DHT22;1466;48.778;9.166;2024-01-30T07:37:04;6.70;98.20
2913;DHT22;1466;48.778;9.166;2024-01-30T07:39:29;6.60;98.20
2913;DHT22;1466;48.778;9.166;2024-01-30T07:41:55;6.60;98.20
2913;DHT22;1466;48.778;9.166;2024-01-30T07:44:20;6.70;98.50
2913;DHT22;1466;48.778;9.166;2024-01-30T07:46:46;6.80;98.50
2913;DHT22;1466;48.778;9.166;2024-01-30T07:49:12;6.90;98.40
2913;DHT22;1466;48.778;9.166;2024-01-30T07:51:39;6.90;98.40
2913;DHT22;1466;48.778;9.166;2024-01-30T07:54:05;7.00;98.30
2913;DHT22;1466;48.778;9.166;2024-01-30T07:56:30;7.00;98.30
2913;DHT22;1466;48.778;9.166;2024-01-30T07:58:56;7.00;98.30
2913;DHT22;1466;48.778;9.166;2024-01-30T08:01:21;7.10;98.30
2913;DHT22;1466;48.778;9.166;2024-01-30T08:03:47;7.10;98.30
2913;DHT22;1466;48.778;9.166;2024-01-30T08:06:13;7.20;98.10
2913;DHT22;1466;48.778;9.166;2024-01-30T08:08:38;7.20;98.00
2913;DHT22;1466;48.778;9.166;2024-01-30T08:11:04;7.20;98.00
2913;DHT22;1466;48.778;9.166;2024-01-30T08:13:29;7.20;98.00
2913;DHT22;1466;48.778;9.166;2024-01-30T08:15:55;7.20;97.90
2913;DHT22;1466;48.778;9.166;2024-01-30T08:18:20;7.30;97.80
2913;DHT22;1466;48.778;9.166;2024-01-30T08:20:46;7.30;98.00
2913;DHT22;1466;48.778;9.166;2024-01-30T08:23:12;7.40;97.80
2913;DHT22;1466;48.778;9.166;2024-01-30T08:25:37;7.40;97.90
2913;DHT22;1466;48.778;9.166;2024-01-30T08:28:03;7.40;97.80
2913;DHT22;1466;48.778;9.166;2024-01-30T08:30:29;7.50;97.90
2913;DHT22;1466;48.778;9.166;2024-01-30T08:32:55;7.50;97.80
2913;DHT22;1466;48.778;9.166;2024-01-30T08:35:20;7.60;97.80
2913;DHT22;1466;48.778;9.166;2024-01-30T08:37:46;7.70;97.70
2913;DHT22;1466;48.778;9.166;2024-01-30T08:40:11;7.70;97.50
2913;DHT22;1466;48.778;9.166;2024-01-30T08:42:37;7.80;97.60
2913;DHT22;1466;48.778;9.166;2024-01-30T08:45:03;7.80;97.50
2913;DHT22;1466;48.778;9.166;2024-01-30T08:47:30;7.90;97.60
2913;DHT22;1466;48.778;9.166;2024-01-30T08:49:56;7.90;97.40
2913;DHT22;1466;48.778;9.166;2024-01-30T08:52:21;8.00;97.40
2913;DHT22;1466;48.778;9.166;2024-01-30T08:54:47;8.00;97.30
2913;DHT22;1466;48.778;9.166;2024-01-30T08:57:12;8.10;97.30
2913;DHT22;1466;48.778;9.166;2024-01-30T08:59:38;8.10;97.60
2913;DHT22;1466;48.778;9.166;2024-01-30T09:02:04;8.10;97.10
2913;DHT22;1466;48.778;9.166;2024-01-30T09:04:30;8.10;97.00
2913;DHT22;1466;48.778;9.166;2024-01-30T09:06:56;8.20;97.30
2913;DHT22;1466;48.778;9.166;2024-01-30T09:09:21;8.20;96.80
2913;DHT22;1466;48.778;9.166;2024-01-30T09:11:47;8.20;96.80
2913;DHT22;1466;48.778;9.166;2024-01-30T09:14:13;8.20;96.90
2913;DHT22;1466;48.778;9.166;2024-01-30T09:16:38;8.20;96.80
2913;DHT22;1466;48.778;9.166;2024-01-30T09:19:04;8.30;96.90
2913;DHT22;1466;48.778;9.166;2024-01-30T09:21:29;8.40;96.80
2913;DHT22;1466;48.778;9.166;2024-01-30T09:24:02;8.50;96.70
2913;DHT22;1466;48.778;9.166;2024-01-30T09:26:28;8.50;96.60
2913;DHT22;1466;48.778;9.166;2024-01-30T09:28:53;8.50;96.50
2913;DHT22;1466;48.778;9.166;2024-01-30T09:31:19;8.60;96.50
2913;DHT22;1466;48.778;9.166;2024-01-30T09:33:44;8.60;96.40
2913;DHT22;1466;48.778;9.166;2024-01-30T09:36:12;8.80;96.70
2913;DHT22;1466;48.778;9.166;2024-01-30T09:38:40;8.80;96.20
2913;DHT22;1466;48.778;9.166;2024-01-30T09:41:09;8.90;96.00
2913;DHT22;1466;48.778;9.166;2024-01-30T09:43:37;9.00;96.00
2913;DHT22;1466;48.778;9.166;2024-01-30T09:46:03;9.10;95.80
2913;DHT22;1466;48.778;9.166;2024-01-30T09:48:30;9.10;95.70
2913;DHT22;1466;48.778;9.166;2024-01-30T09:50:57;9.10;95.60
2913;DHT22;1466;48.778;9.166;2024-01-30T09:53:25;9.10;95.60
2913;DHT22;1466;48.778;9.166;2024-01-30T09:55:54;9.20;95.50
2913;DHT22;1466;48.778;9.166;2024-01-30T09:58:19;9.20;95.40
2913;DHT22;1466;48.778;9.166;2024-01-30T10:00:45;9.30;95.40
2913;DHT22;1466;48.778;9.166;2024-01-30T10:03:10;9.40;95.30
2913;DHT22;1466;48.778;9.166;2024-01-30T10:05:36;9.50;95.20
2913;DHT22;1466;48.778;9.166;2024-01-30T10:08:09;9.50;95.00
2913;DHT22;1466;48.778;9.166;2024-01-30T10:10:37;9.60;94.90
2913;DHT22;1466;48.778;9.166;2024-01-30T10:13:03;9.60;94.80
2913;DHT22;1466;48.778;9.166;2024-01-30T10:15:29;9.70;94.70
2913;DHT22;1466;48.778;9.166;2024-01-30T10:17:54;9.80;94.60
2913;DHT22;1466;48.778;9.166;2024-01-30T10:20:20;9.80;94.80
2913;DHT22;1466;48.778;9.166;2024-01-30T10:22:48;9.90;94.40
2913;DHT22;1466;48.778;9.166;2024-01-30T10:25:15;10.00;93.80
2913;DHT22;1466;48.778;9.166;2024-01-30T10:27:40;10.10;93.70
2913;DHT22;1466;48.778;9.166;2024-01-30T10:30:07;10.20;93.60
2913;DHT22;1466;48.778;9.166;2024-01-30T10:32:33;10.20;93.60
2913;DHT22;1466;48.778;9.166;2024-01-30T10:34:58;10.30;93.60
2913;DHT22;1466;48.778;9.166;2024-01-30T10:37:25;10.30;93.50
2913;DHT22;1466;48.778;9.166;2024-01-30T10:39:53;10.40;93.50
2913;DHT22;1466;48.778;9.166;2024-01-30T10:42:25;10.40;93.40
2913;DHT22;1466;48.778;9.166;2024-01-30T10:45:17;10.40;93.30
2913;DHT22;1466;48.778;9.166;2024-01-30T10:47:49;10.50;93.30
2913;DHT22;1466;48.778;9.166;2024-01-30T10:50:15;10.50;93.30
2913;DHT22;1466;48.778;9.166;2024-01-30T10:52:41;10.50;93.20
2913;DHT22;1466;48.778;9.166;2024-01-30T10:55:10;10.60;93.10
2913;DHT22;1466;48.778;9.166;2024-01-30T10:57:36;10.60;93.10
2913;DHT22;1466;48.778;9.166;2024-01-30T11:00:04;10.70;93.00
2913;DHT22;1466;48.778;9.166;2024-01-30T11:02:32;10.70;93.00
2913;DHT22;1466;48.778;9.166;2024-01-30T11:04:58;10.80;92.90
2913;DHT22;1466;48.778;9.166;2024-01-30T11:07:29;10.90;92.80
2913;DHT22;1466;48.778;9.166;2024-01-30T11:12:27;11.00;92.70
2913;DHT22;1466;48.778;9.166;2024-01-30T11:20:26;11.10;92.50
2913;DHT22;1466;48.778;9.166;2024-01-30T11:22:54;11.10;92.40
2913;DHT22;1466;48.778;9.166;2024-01-30T11:25:21;11.20;92.40
2913;DHT22;1466;48.778;9.166;2024-01-30T11:27:49;11.20;92.30
2913;DHT22;1466;48.778;9.166;2024-01-30T11:30:25;11.30;92.20
2913;DHT22;1466;48.778;9.166;2024-01-30T11:33:30;11.30;92.20
2913;DHT22;1466;48.778;9.166;2024-01-30T11:35:57;11.30;92.10
2913;DHT22;1466;48.778;9.166;2024-01-30T11:38:26;11.40;92.10
2913;DHT22;1466;48.778;9.166;2024-01-30T11:40:54;11.40;91.90
2913;DHT22;1466;48.778;9.166;2024-01-30T11:43:20;11.50;91.90
2913;DHT22;1466;48.778;9.166;2024-01-30T11:45:45;11.50;91.90
2913;DHT22;1466;48.778;9.166;2024-01-30T11:48:12;11.50;91.80
2913;DHT22;1466;48.778;9.166;2024-01-30T11:50:39;11.60;91.90
2913;DHT22;1466;48.778;9.166;2024-01-30T11:53:05;11.70;91.90
2913;DHT22;1466;48.778;9.166;2024-01-30T11:55:31;11.70;91.80
2913;DHT22;1466;48.778;9.166;2024-01-30T11:58:00;11.80;91.80
2913;DHT22;1466;48.778;9.166;2024-01-30T12:00:25;11.80;92.10
2913;DHT22;1466;48.778;9.166;2024-01-30T12:02:55;11.90;91.80
2913;DHT22;1466;48.778;9.166;2024-01-30T12:05:25;11.90;91.80
2913;DHT22;1466;48.778;9.166;2024-01-30T12:07:50;11.90;91.70
2913;DHT22;1466;48.778;9.166;2024-01-30T12:10:16;11.90;91.60
2913;DHT22;1466;48.778;9.166;2024-01-30T12:12:47;12.00;91.60
2913;DHT22;1466;48.778;9.166;2024-01-30T12:15:14;12.00;91.50
2913;DHT22;1466;48.778;9.166;2024-01-30T12:17:40;12.00;91.40
2913;DHT22;1466;48.778;9.166;2024-01-30T12:20:14;12.00;91.40
2913;DHT22;1466;48.778;9.166;2024-01-30T12:22:44;12.00;91.30
2913;DHT22;1466;48.778;9.166;2024-01-30T12:25:11;12.10;91.30
2913;DHT22;1466;48.778;9.166;2024-01-30T12:27:37;12.10;91.30
2913;DHT22;1466;48.778;9.166;2024-01-30T12:30:07;12.10;91.10
2913;DHT22;1466;48.778;9.166;2024-01-30T12:32:39;12.20;91.30
2913;DHT22;1466;48.778;9.166;2024-01-30T12:35:08;12.30;91.30
2913;DHT22;1466;48.778;9.166;2024-01-30T12:37:34;12.30;91.30
2913;DHT22;1466;48.778;9.166;2024-01-30T12:40:00;12.40;91.30
2913;DHT22;1466;48.778;9.166;2024-01-30T12:42:27;12.40;91.20
2913;DHT22;1466;48.778;9.166;2024-01-30T12:44:53;12.40;91.20
2913;DHT22;1466;48.778;9.166;2024-01-30T12:47:20;12.50;91.20
2913;DHT22;1466;48.778;9.166;2024-01-30T12:49:46;12.50;91.10
2913;DHT22;1466;48.778;9.166;2024-01-30T12:52:14;12.60;91.00
2913;DHT22;1466;48.778;9.166;2024-01-30T12:54:40;12.60;90.90
2913;DHT22;1466;48.778;9.166;2024-01-30T12:57:05;12.60;90.90
2913;DHT22;1466;48.778;9.166;2024-01-30T12:59:31;12.60;90.80
2913;DHT22;1466;48.778;9.166;2024-01-30T13:01:58;12.60;90.80
2913;DHT22;1466;48.778;9.166;2024-01-30T13:04:24;12.60;90.70
2913;DHT22;1466;48.778;9.166;2024-01-30T13:06:49;12.60;90.70
2913;DHT22;1466;48.778;9.166;2024-01-30T13:09:15;12.60;90.60
2913;DHT22;1466;48.778;9.166;2024-01-30T13:11:41;12.60;90.50
2913;DHT22;1466;48.778;9.166;2024-01-30T13:14:06;12.50;90.50
2913;DHT22;1466;48.778;9.166;2024-01-30T13:16:32;12.60;90.60
2913;DHT22;1466;48.778;9.166;2024-01-30T13:18:58;12.60;90.40
2913;DHT22;1466;48.778;9.166;2024-01-30T13:21:24;12.70;90.30
2913;DHT22;1466;48.778;9.166;2024-01-30T13:23:49;12.80;90.30
2913;DHT22;1466;48.778;9.166;2024-01-30T13:26:18;12.80;90.30
2913;DHT22;1466;48.778;9.166;2024-01-30T13:28:44;12.80;90.20
2913;DHT22;1466;48.778;9.166;2024-01-30T13:31:10;12.80;90.10
2913;DHT22;1466;48.778;9.166;2024-01-30T13:33:35;12.70;90.00
2913;DHT22;1466;48.778;9.166;2024-01-30T13:36:01;12.70;90.00
2913;DHT22;1466;48.778;9.166;2024-01-30T13:38:27;12.60;90.00
2913;DHT22;1466;48.778;9.166;2024-01-30T13:40:52;12.50;90.00
2913;DHT22;1466;48.778;9.166;2024-01-30T13:43:18;12.60;90.10
2913;DHT22;1466;48.778;9.166;2024-01-30T13:45:43;12.60;90.10
2913;DHT22;1466;48.778;9.166;2024-01-30T13:48:09;12.60;90.20
2913;DHT22;1466;48.778;9.166;2024-01-30T13:50:35;12.70;90.20
2913;DHT22;1466;48.778;9.166;2024-01-30T13:53:02;12.70;90.10
2913;DHT22;1466;48.778;9.166;2024-01-30T13:55:29;12.70;90.00
2913;DHT22;1466;48.778;9.166;2024-01-30T13:57:54;12.80;90.00
2913;DHT22;1466;48.778;9.166;2024-01-30T14:00:21;12.90;90.00
2913;DHT22;1466;48.778;9.166;2024-01-30T14:02:48;13.00;90.00
2913;DHT22;1466;48.778;9.166;2024-01-30T14:05:13;13.00;90.00
2913;DHT22;1466;48.778;9.166;2024-01-30T14:07:40;13.10;89.70
2913;DHT22;1466;48.778;9.166;2024-01-30T14:10:09;13.10;89.60
2913;DHT22;1466;48.778;9.166;2024-01-30T14:12:36;13.10;89.70
2913;DHT22;1466;48.778;9.166;2024-01-30T14:15:02;13.10;89.70
2913;DHT22;1466;48.778;9.166;2024-01-30T14:17:27;13.20;89.80
2913;DHT22;1466;48.778;9.166;2024-01-30T14:19:53;13.20;89.30
2913;DHT22;1466;48.778;9.166;2024-01-30T14:22:18;13.10;89.30
2913;DHT22;1466;48.778;9.166;2024-01-30T14:24:44;13.10;89.50
2913;DHT22;1466;48.778;9.166;2024-01-30T14:27:10;13.20;89.60
2913;DHT22;1466;48.778;9.166;2024-01-30T14:29:36;13.10;89.60
2913;DHT22;1466;48.778;9.166;2024-01-30T14:32:01;13.10;89.70
2913;DHT22;1466;48.778;9.166;2024-01-30T14:34:27;13.00;89.80
2913;DHT22;1466;48.778;9.166;2024-01-30T14:36:53;13.00;90.00
2913;DHT22;1466;48.778;9.166;2024-01-30T14:39:18;13.00;90.20
2913;DHT22;1466;48.778;9.166;2024-01-30T14:41:44;13.00;90.20
2913;DHT22;1466;48.778;9.166;2024-01-30T14:44:09;13.00;90.20
2913;DHT22;1466;48.778;9.166;2024-01-30T14:46:36;12.90;90.40
2913;DHT22;1466;48.778;9.166;2024-01-30T14:49:03;12.90;90.50
2913;DHT22;1466;48.778;9.166;2024-01-30T14:51:31;12.80;90.80
2913;DHT22;1466;48.778;9.166;2024-01-30T14:53:56;12.80;90.60
2913;DHT22;1466;48.778;9.166;2024-01-30T14:56:22;12.90;90.70
2913;DHT22;1466;48.778;9.166;2024-01-30T14:58:48;12.90;90.70
2913;DHT22;1466;48.778;9.166;2024-01-30T15:01:14;12.80;90.60
2913;DHT22;1466;48.778;9.166;2024-01-30T15:03:40;12.80;90.70
2913;DHT22;1466;48.778;9.166;2024-01-30T15:06:06;12.80;90.70
2913;DHT22;1466;48.778;9.166;2024-01-30T15:08:32;12.80;90.90
2913;DHT22;1466;48.778;9.166;2024-01-30T15:10:58;12.70;90.80
2913;DHT22;1466;48.778;9.166;2024-01-30T15:13:24;12.70;90.80
2913;DHT22;1466;48.778;9.166;2024-01-30T15:15:49;12.70;90.90
2913;DHT22;1466;48.778;9.166;2024-01-30T15:18:15;12.60;90.90
2913;DHT22;1466;48.778;9.166;2024-01-30T15:20:41;12.60;91.00
2913;DHT22;1466;48.778;9.166;2024-01-30T15:23:06;12.70;91.10
2913;DHT22;1466;48.778;9.166;2024-01-30T15:25:32;12.70;91.00
2913;DHT22;1466;48.778;9.166;2024-01-30T15:27:57;12.70;91.10
2913;DHT22;1466;48.778;9.166;2024-01-30T15:30:23;12.70;91.10
2913;DHT22;1466;48.778;9.166;2024-01-30T15:32:49;12.70;91.10
2913;DHT22;1466;48.778;9.166;2024-01-30T15:35:14;12.70;91.10
2913;DHT22;1466;48.778;9.166;2024-01-30T15:37:40;12.70;91.10
2913;DHT22;1466;48.778;9.166;2024-01-30T15:40:06;12.70;91.10
2913;DHT22;1466;48.778;9.166;2024-01-30T15:42:32;12.70;91.20
2913;DHT22;1466;48.778;9.166;2024-01-30T15:45:00;12.60;91.30
2913;DHT22;1466;48.778;9.166;2024-01-30T15:47:26;12.60;91.50
2913;DHT22;1466;48.778;9.166;2024-01-30T15:49:52;12.60;91.90
2913;DHT22;1466;48.778;9.166;2024-01-30T15:52:18;12.60;91.60
2913;DHT22;1466;48.778;9.166;2024-01-30T15:54:46;12.60;91.60
2913;DHT22;1466;48.778;9.166;2024-01-30T15:57:11;12.60;91.60
2913;DHT22;1466;48.778;9.166;2024-01-30T15:59:37;12.50;91.70
2913;DHT22;1466;48.778;9.166;2024-01-30T16:02:03;12.50;91.80
2913;DHT22;1466;48.778;9.166;2024-01-30T16:04:29;12.50;91.80
2913;DHT22;1466;48.778;9.166;2024-01-30T16:06:54;12.50;91.90
2913;DHT22;1466;48.778;9.166;2024-01-30T16:09:23;12.50;91.90
2913;DHT22;1466;48.778;9.166;2024-01-30T16:11:48;12.50;92.00
2913;DHT22;1466;48.778;9.166;2024-01-30T16:14:14;12.40;92.00